Time;durP1;ratioP1;P1;durP2;ratioP2;P2;SDS_P1;SDS_P2;PMS_P1;PMS_P2;Temp;Humidity;BMP_temperature;BMP_pressure;BME280_temperature;BME280_humidity;BME280_pressure;Samples;Min_cycle;Max_cycle;Signal;HPM_P1;HPM_P2
2021/06/16 00:01:55;;;;;;;2.95;2.08;;;20.10;49.10;;;;;;5069876;28;20078;-79
2021/06/16 00:04:21;;;;;;;3.03;2.35;;;20.10;49.20;;;;;;5087953;28;20031;-79
2021/06/16 00:06:49;;;;;;;2.35;1.80;;;20.00;49.10;;;;;;5087338;28;20028;-79
2021/06/16 00:09:15;;;;;;;2.85;2.10;;;20.00;49.30;;;;;;5069877;28;20485;-78
2021/06/16 00:11:41;;;;;;;3.45;2.05;;;19.90;49.20;;;;;;5087843;28;20436;-78
2021/06/16 00:14:08;;;;;;;2.92;1.77;;;19.90;49.40;;;;;;5091704;28;20054;-78
2021/06/16 00:16:34;;;;;;;6.68;2.50;;;19.90;50.10;;;;;;5078017;28;20572;-79
2021/06/16 00:19:01;;;;;;;5.72;2.50;;;19.90;49.50;;;;;;5076911;28;20025;-77
2021/06/16 00:21:27;;;;;;;4.40;2.03;;;19.80;49.50;;;;;;5082354;28;20028;-78
2021/06/16 00:23:53;;;;;;;3.28;2.20;;;19.80;49.60;;;;;;5089810;28;20024;-79
2021/06/16 00:26:19;;;;;;;3.92;2.22;;;19.80;49.70;;;;;;5107811;28;20092;-80
2021/06/16 00:28:45;;;;;;;4.47;2.13;;;19.70;49.50;;;;;;5107694;28;20031;-79
2021/06/16 00:31:11;;;;;;;2.95;1.95;;;19.70;49.60;;;;;;5072630;28;20071;-79
2021/06/16 00:33:37;;;;;;;4.47;2.30;;;19.70;49.70;;;;;;5071976;28;20024;-80
2021/06/16 00:36:04;;;;;;;3.80;2.15;;;19.70;49.80;;;;;;5089242;28;20039;-77
2021/06/16 00:38:30;;;;;;;4.88;2.45;;;19.70;49.80;;;;;;5089167;28;20024;-78
2021/06/16 00:40:57;;;;;;;4.78;2.10;;;19.70;49.90;;;;;;5072589;28;20041;-77
2021/06/16 00:43:23;;;;;;;3.90;1.90;;;19.60;49.70;;;;;;5107298;28;20031;-79
2021/06/16 00:45:49;;;;;;;3.38;1.83;;;19.60;49.80;;;;;;5107530;28;20032;-78
2021/06/16 00:48:16;;;;;;;3.78;2.08;;;19.60;49.90;;;;;;5088876;28;20134;-78
2021/06/16 00:50:43;;;;;;;4.82;2.33;;;19.60;49.90;;;;;;5089286;28;20024;-80
2021/06/16 00:53:09;;;;;;;5.57;2.10;;;19.60;50.00;;;;;;5099207;28;20032;-77
2021/06/16 00:55:38;;;;;;;3.28;2.00;;;19.60;50.10;;;;;;5099659;28;20042;-77
2021/06/16 00:58:14;;;;;;;2.08;1.80;;;19.50;49.90;;;;;;5088430;28;20035;-77
2021/06/16 01:00:45;;;;;;;4.30;2.17;;;19.50;50.10;;;;;;5091575;28;20479;-77
2021/06/16 01:03:16;;;;;;;3.97;2.28;;;19.50;50.10;;;;;;5086543;28;20513;-77
2021/06/16 01:05:47;;;;;;;2.92;1.70;;;19.50;50.10;;;;;;5066916;28;20094;-78
2021/06/16 01:08:19;;;;;;;4.82;2.58;;;19.50;50.20;;;;;;5087247;28;20035;-76
2021/06/16 01:10:47;;;;;;;3.15;2.05;;;19.50;50.30;;;;;;5087180;28;20077;-78
2021/06/16 01:13:37;;;;;;;4.30;1.83;;;19.50;50.30;;;;;;5069105;28;20044;-79
2021/06/16 01:16:03;;;;;;;2.45;1.77;;;19.40;50.30;;;;;;5061267;28;20048;-79
2021/06/16 01:18:33;;;;;;;3.22;1.75;;;19.40;50.10;;;;;;5086650;28;20024;-78
2021/06/16 01:21:00;;;;;;;5.95;2.05;;;19.40;50.30;;;;;;5068304;28;20051;-77
2021/06/16 01:23:42;;;;;;;4.47;2.15;;;19.40;50.30;;;;;;5065019;28;20032;-79
2021/06/16 01:26:28;;;;;;;5.43;2.50;;;19.40;50.50;;;;;;5065075;28;20127;-80
2021/06/16 01:29:07;;;;;;;3.75;2.10;;;19.30;50.40;;;;;;5068451;28;20074;-80
2021/06/16 01:31:33;;;;;;;5.18;2.35;;;19.30;50.40;;;;;;5087026;28;20042;-78
2021/06/16 01:34:01;;;;;;;3.58;1.77;;;19.20;50.20;;;;;;5070301;28;20036;-79
2021/06/16 01:36:28;;;;;;;4.30;2.47;;;19.20;50.40;;;;;;5087756;28;20039;-79
2021/06/16 01:38:55;;;;;;;2.92;1.92;;;19.20;50.40;;;;;;5069461;28;20295;-79
2021/06/16 01:41:22;;;;;;;3.38;1.90;;;19.20;50.50;;;;;;5069443;28;20499;-78
2021/06/16 01:43:51;;;;;;;3.83;2.08;;;19.10;50.30;;;;;;5087584;28;20061;-79
2021/06/16 01:46:18;;;;;;;1.67;1.58;;;19.10;50.40;;;;;;5069579;28;20061;-79
2021/06/16 01:48:46;;;;;;;2.95;2.17;;;19.10;50.50;;;;;;5072037;28;20031;-79
2021/06/16 01:51:12;;;;;;;2.97;2.08;;;19.10;50.60;;;;;;5056022;28;20033;-79
2021/06/16 01:53:40;;;;;;;3.08;2.17;;;19.00;50.40;;;;;;5072365;28;20028;-79
2021/06/16 01:56:08;;;;;;;3.60;1.77;;;19.00;50.40;;;;;;5073054;28;20036;-80
2021/06/16 01:58:35;;;;;;;2.05;1.63;;;19.00;50.50;;;;;;5090747;28;20023;-79
2021/06/16 02:01:02;;;;;;;3.83;1.65;;;19.00;50.50;;;;;;5072360;28;20032;-80
2021/06/16 02:03:29;;;;;;;3.70;1.90;;;19.00;50.60;;;;;;5090809;28;20102;-79
2021/06/16 02:05:59;;;;;;;4.10;2.25;;;19.00;50.70;;;;;;5056070;28;20395;-79
2021/06/16 02:08:28;;;;;;;4.75;2.20;;;18.90;50.50;;;;;;5072423;28;20036;-78
2021/06/16 02:10:55;;;;;;;4.07;2.00;;;18.90;50.60;;;;;;5075940;28;20081;-78
2021/06/16 02:13:28;;;;;;;2.78;2.10;;;18.80;51.00;;;;;;5099255;28;20043;-78
2021/06/16 02:16:26;;;;;;;3.38;1.90;;;18.90;50.70;;;;;;5096684;28;20031;-80
2021/06/16 02:19:07;;;;;;;6.03;2.33;;;18.80;50.60;;;;;;5073455;28;20057;-79
2021/06/16 02:21:34;;;;;;;3.40;1.98;;;18.80;50.70;;;;;;5079196;28;20031;-79
2021/06/16 02:24:00;;;;;;;4.85;2.10;;;18.70;50.50;;;;;;5114787;28;20252;-78
2021/06/16 02:26:26;;;;;;;3.65;2.10;;;18.70;50.60;;;;;;5114102;28;20050;-77
2021/06/16 02:28:52;;;;;;;3.47;2.22;;;18.70;50.70;;;;;;5079352;28;20024;-79
2021/06/16 02:31:18;;;;;;;3.03;2.05;;;18.60;50.60;;;;;;5114518;28;20042;-78
2021/06/16 02:33:44;;;;;;;3.15;2.00;;;18.50;50.50;;;;;;5114272;28;20046;-79
2021/06/16 02:36:12;;;;;;;3.83;2.05;;;18.50;50.50;;;;;;5114244;28;20084;-79
2021/06/16 02:38:40;;;;;;;3.72;2.10;;;18.50;50.70;;;;;;5095995;28;20471;-78
2021/06/16 02:41:11;;;;;;;4.95;2.33;;;18.40;50.60;;;;;;5114421;28;20037;-79
2021/06/16 02:43:37;;;;;;;6.22;1.88;;;18.40;50.70;;;;;;5095954;28;20035;-78
2021/06/16 02:46:06;;;;;;;3.28;2.17;;;18.40;50.70;;;;;;5095901;28;20034;-79
2021/06/16 02:48:33;;;;;;;3.30;2.05;;;18.30;50.70;;;;;;5114389;28;20462;-78
2021/06/16 02:51:00;;;;;;;3.40;1.90;;;18.30;50.70;;;;;;5114062;28;20491;-78
2021/06/16 02:53:27;;;;;;;3.80;2.33;;;18.20;50.60;;;;;;5113679;28;20027;-78
2021/06/16 02:56:00;;;;;;;2.35;1.90;;;18.20;50.70;;;;;;5095772;28;20034;-79
2021/06/16 02:58:27;;;;;;;2.22;1.80;;;18.20;50.80;;;;;;5113830;28;20386;-79
2021/06/16 03:01:03;;;;;;;2.50;1.80;;;18.10;50.70;;;;;;5113836;28;20496;-78
2021/06/16 03:03:29;;;;;;;2.20;2.00;;;18.10;50.90;;;;;;5114011;28;20470;-79
2021/06/16 03:05:57;;;;;;;2.55;1.85;;;18.00;50.70;;;;;;5113712;28;20539;-79
2021/06/16 03:08:24;;;;;;;3.70;1.95;;;17.90;50.60;;;;;;5113864;28;20027;-78
2021/06/16 03:10:52;;;;;;;2.35;1.65;;;17.90;50.70;;;;;;5095713;28;20032;-78
2021/06/16 03:13:19;;;;;;;4.30;1.73;;;17.90;50.80;;;;;;5113125;28;20210;-80
2021/06/16 03:15:46;;;;;;;5.18;1.98;;;17.80;50.70;;;;;;5095259;28;20381;-81
2021/06/16 03:18:15;;;;;;;3.22;1.85;;;17.80;50.80;;;;;;5085735;28;20031;-81
2021/06/16 03:20:42;;;;;;;3.38;1.92;;;17.80;50.80;;;;;;5080349;28;20098;-78
2021/06/16 03:23:13;;;;;;;3.28;2.00;;;17.70;50.80;;;;;;5055024;28;20537;-79
2021/06/16 03:25:39;;;;;;;2.47;1.80;;;17.70;51.10;;;;;;5088246;28;20119;-79
2021/06/16 03:28:07;;;;;;;2.78;2.08;;;17.70;50.90;;;;;;5054999;28;20031;-79
2021/06/16 03:30:33;;;;;;;3.30;2.10;;;17.60;50.80;;;;;;5072720;28;20112;-79
2021/06/16 03:33:00;;;;;;;5.55;2.42;;;17.60;50.80;;;;;;5072634;28;20033;-78
2021/06/16 03:35:26;;;;;;;3.00;1.80;;;17.50;50.70;;;;;;5072831;28;20123;-78
2021/06/16 03:37:54;;;;;;;2.20;1.88;;;17.50;50.80;;;;;;5072501;28;20063;-79
2021/06/16 03:40:24;;;;;;;2.67;2.00;;;17.50;50.90;;;;;;5072642;28;20032;-79
2021/06/16 03:42:50;;;;;;;4.35;2.05;;;17.40;50.90;;;;;;5072365;28;20541;-79
2021/06/16 03:45:18;;;;;;;2.03;1.80;;;17.40;50.90;;;;;;5072471;28;20028;-79
2021/06/16 03:47:46;;;;;;;2.45;1.90;;;17.30;50.90;;;;;;5071846;28;20039;-79
2021/06/16 03:50:16;;;;;;;3.97;1.95;;;17.30;51.00;;;;;;5037867;28;20074;-80
2021/06/16 03:52:43;;;;;;;2.70;1.65;;;17.20;50.90;;;;;;5070872;28;20109;-80
2021/06/16 03:55:11;;;;;;;2.38;1.90;;;17.20;50.90;;;;;;5072206;28;20024;-79
2021/06/16 03:57:41;;;;;;;3.95;1.92;;;17.20;51.00;;;;;;5054772;28;20028;-79
2021/06/16 04:00:09;;;;;;;3.70;2.40;;;17.10;50.90;;;;;;5054180;28;20094;-79
2021/06/16 04:02:35;;;;;;;2.85;1.77;;;17.10;50.90;;;;;;5072049;28;20372;-79
2021/06/16 04:05:03;;;;;;;2.58;2.00;;;17.10;51.00;;;;;;5072206;28;20031;-80
2021/06/16 04:07:29;;;;;;;5.50;2.35;;;17.00;50.90;;;;;;5070844;28;20127;-80
2021/06/16 04:09:56;;;;;;;4.45;2.30;;;17.00;50.90;;;;;;5072677;28;20025;-79
2021/06/16 04:12:23;;;;;;;4.32;1.90;;;17.00;51.00;;;;;;5071652;28;20059;-79
2021/06/16 04:14:49;;;;;;;5.53;2.50;;;17.00;51.00;;;;;;5070189;28;20087;-79
2021/06/16 04:17:17;;;;;;;3.53;2.25;;;17.00;51.10;;;;;;5070411;28;20136;-79
2021/06/16 04:19:43;;;;;;;3.38;1.92;;;16.90;50.90;;;;;;5053830;28;20396;-79
2021/06/16 04:22:09;;;;;;;2.28;1.98;;;16.90;51.00;;;;;;5071941;28;20083;-79
2021/06/16 04:24:35;;;;;;;3.38;2.42;;;16.90;51.00;;;;;;5071672;28;20487;-79
2021/06/16 04:27:02;;;;;;;3.20;1.90;;;16.80;50.90;;;;;;5063132;28;20107;-80
2021/06/16 04:29:27;;;;;;;2.97;1.98;;;16.80;51.00;;;;;;5072118;28;20119;-78
2021/06/16 04:31:55;;;;;;;3.97;2.50;;;16.80;51.00;;;;;;5071766;28;20506;-80
2021/06/16 04:34:22;;;;;;;5.18;2.47;;;16.80;51.10;;;;;;5036926;28;20052;-79
2021/06/16 04:36:48;;;;;;;2.65;2.00;;;16.70;51.00;;;;;;5053658;28;20047;-80
2021/06/16 04:39:15;;;;;;;3.60;2.22;;;16.70;51.00;;;;;;5071356;28;20025;-80
2021/06/16 04:41:41;;;;;;;3.75;2.03;;;16.70;51.00;;;;;;5069824;28;20032;-78
2021/06/16 04:44:07;;;;;;;6.82;2.40;;;16.70;51.10;;;;;;5071175;28;20094;-78
2021/06/16 04:46:33;;;;;;;3.70;2.08;;;16.70;51.10;;;;;;5071577;28;20491;-80
2021/06/16 04:49:00;;;;;;;3.25;2.45;;;16.70;51.20;;;;;;5068420;28;20032;-78
2021/06/16 04:51:26;;;;;;;2.97;1.92;;;16.70;51.30;;;;;;5066985;28;20032;-79
2021/06/16 04:53:52;;;;;;;4.55;2.08;;;16.60;51.10;;;;;;5068231;28;20396;-78
2021/06/16 04:56:18;;;;;;;2.70;1.73;;;16.60;51.20;;;;;;5066996;28;20040;-78
2021/06/16 04:58:44;;;;;;;2.85;2.03;;;16.60;51.20;;;;;;5078754;28;20477;-78
2021/06/16 05:01:10;;;;;;;3.15;2.22;;;16.50;51.10;;;;;;5070258;28;20043;-80
2021/06/16 05:03:36;;;;;;;5.00;2.05;;;16.50;51.10;;;;;;5056913;28;20029;-78
2021/06/16 05:06:04;;;;;;;4.95;2.35;;;16.50;51.20;;;;;;5049019;28;20032;-79
2021/06/16 05:08:30;;;;;;;3.25;2.10;;;16.50;51.20;;;;;;5076521;28;20462;-78
2021/06/16 05:10:56;;;;;;;3.50;2.28;;;16.50;51.30;;;;;;5068559;28;20464;-77
2021/06/16 05:13:27;;;;;;;3.45;2.00;;;16.50;51.30;;;;;;5086153;28;20194;-77
2021/06/16 05:15:55;;;;;;;3.10;2.15;;;16.50;51.40;;;;;;5068520;28;20510;-78
2021/06/16 05:18:22;;;;;;;2.58;1.90;;;16.50;51.30;;;;;;5086384;28;20032;-78
2021/06/16 05:20:48;;;;;;;2.75;1.85;;;16.50;51.40;;;;;;5086714;28;20093;-78
2021/06/16 05:23:14;;;;;;;5.68;2.03;;;16.50;51.40;;;;;;5052149;28;20020;-78
2021/06/16 05:25:41;;;;;;;4.38;2.33;;;16.50;51.40;;;;;;5068468;28;20390;-78
2021/06/16 05:28:08;;;;;;;3.72;2.28;;;16.50;51.40;;;;;;5068680;28;20032;-77
2021/06/16 05:30:36;;;;;;;3.75;2.00;;;16.50;51.40;;;;;;5086957;28;20475;-78
2021/06/16 05:33:02;;;;;;;3.75;1.90;;;16.50;51.40;;;;;;5086370;28;20067;-76
2021/06/16 05:35:29;;;;;;;3.00;2.08;;;16.50;51.40;;;;;;5068757;28;20051;-77
2021/06/16 05:37:55;;;;;;;3.05;2.25;;;16.50;51.50;;;;;;5086439;28;20027;-78
2021/06/16 05:40:21;;;;;;;3.65;2.58;;;16.50;51.50;;;;;;5086406;28;20034;-78
2021/06/16 05:42:47;;;;;;;4.78;2.40;;;16.60;51.70;;;;;;5066200;28;20047;-77
2021/06/16 05:45:13;;;;;;;3.17;2.25;;;16.60;51.80;;;;;;5067489;28;20053;-77
2021/06/16 05:47:39;;;;;;;3.92;2.05;;;16.60;51.80;;;;;;5051883;28;20074;-77
2021/06/16 05:50:06;;;;;;;2.38;1.83;;;16.60;51.80;;;;;;5035363;28;20037;-77
2021/06/16 05:52:32;;;;;;;3.55;2.20;;;16.70;52.10;;;;;;5069702;28;20384;-77
2021/06/16 05:54:58;;;;;;;4.25;2.55;;;16.70;52.60;;;;;;5070209;28;20035;-77
2021/06/16 05:57:24;;;;;;;2.22;1.77;;;16.80;52.20;;;;;;5035980;28;20117;-78
2021/06/16 05:59:51;;;;;;;3.00;2.33;;;16.80;52.20;;;;;;5070499;28;20196;-77
2021/06/16 06:02:17;;;;;;;5.00;2.40;;;16.90;52.40;;;;;;5070033;28;20028;-79
2021/06/16 06:04:43;;;;;;;3.75;2.45;;;17.00;53.10;;;;;;5069912;28;20426;-77
2021/06/16 06:07:09;;;;;;;2.00;1.77;;;17.10;52.70;;;;;;5070202;28;20479;-77
2021/06/16 06:09:35;;;;;;;4.30;2.28;;;17.20;52.80;;;;;;5069641;28;20037;-75
2021/06/16 06:12:01;;;;;;;3.13;2.28;;;17.30;53.00;;;;;;5051640;28;20029;-77
2021/06/16 06:14:27;;;;;;;3.38;2.40;;;17.40;53.10;;;;;;5085268;28;20055;-79
2021/06/16 06:16:53;;;;;;;3.75;1.90;;;17.60;53.40;;;;;;5072082;28;20040;-78
2021/06/16 06:19:19;;;;;;;2.05;1.77;;;17.70;53.50;;;;;;5069480;28;20416;-79
2021/06/16 06:21:45;;;;;;;3.63;2.28;;;17.90;53.80;;;;;;5091312;28;20043;-77
2021/06/16 06:24:11;;;;;;;3.75;2.30;;;18.10;54.00;;;;;;5110030;28;20360;-77
2021/06/16 06:26:37;;;;;;;2.92;2.08;;;18.30;54.20;;;;;;5092430;28;20212;-80
2021/06/16 06:29:03;;;;;;;3.58;2.20;;;18.40;54.30;;;;;;5092353;28;20092;-80
2021/06/16 06:31:30;;;;;;;2.38;1.80;;;18.60;54.60;;;;;;5110056;28;20460;-82
2021/06/16 06:33:56;;;;;;;2.67;2.15;;;18.90;55.00;;;;;;5093521;28;20471;-80
2021/06/16 06:36:23;;;;;;;4.18;2.53;;;19.20;55.40;;;;;;5103052;28;20396;-80
2021/06/16 06:38:50;;;;;;;3.03;2.20;;;19.50;55.70;;;;;;5094043;28;20059;-80
2021/06/16 06:41:16;;;;;;;4.00;2.05;;;19.80;55.80;;;;;;5084550;28;20032;-79
2021/06/16 06:43:43;;;;;;;3.80;2.13;;;20.10;56.00;;;;;;5089331;28;20024;-83
2021/06/16 06:46:09;;;;;;;4.00;2.22;;;20.50;56.40;;;;;;5089510;28;20024;-92
2021/06/16 06:48:36;;;;;;;4.03;3.00;;;20.90;56.70;;;;;;5072805;28;20507;-79
2021/06/16 06:51:02;;;;;;;4.53;2.42;;;21.30;57.00;;;;;;5107823;28;20019;-79
2021/06/16 06:53:29;;;;;;;9.85;5.50;;;21.70;57.20;;;;;;5097264;28;20058;-78
2021/06/16 06:55:57;;;;;;;10.77;9.45;;;22.10;57.20;;;;;;5089049;28;20451;-77
2021/06/16 06:58:24;;;;;;;13.07;8.73;;;22.50;57.10;;;;;;5095251;28;20031;-77
2021/06/16 07:00:50;;;;;;;13.80;8.73;;;22.70;56.80;;;;;;5090991;28;20027;-77
2021/06/16 07:03:16;;;;;;;15.65;9.20;;;23.00;56.90;;;;;;5109546;28;20478;-77
2021/06/16 07:05:43;;;;;;;13.65;9.00;;;23.20;56.80;;;;;;5109160;28;20049;-77
2021/06/16 07:08:09;;;;;;;11.70;8.77;;;23.30;56.40;;;;;;5109225;28;20031;-78
2021/06/16 07:10:35;;;;;;;12.20;8.57;;;23.50;56.50;;;;;;5108998;28;20060;-77
2021/06/16 07:13:02;;;;;;;12.60;8.48;;;23.70;56.40;;;;;;5090593;28;20421;-77
2021/06/16 07:15:28;;;;;;;16.50;10.02;;;23.90;56.40;;;;;;5090755;28;20046;-77
2021/06/16 07:17:54;;;;;;;15.13;10.00;;;24.10;56.30;;;;;;5090085;28;20387;-78
2021/06/16 07:20:20;;;;;;;14.63;9.60;;;24.20;56.10;;;;;;5090592;28;20032;-78
2021/06/16 07:22:47;;;;;;;13.18;10.30;;;24.50;56.10;;;;;;5095736;28;20438;-79
2021/06/16 07:25:13;;;;;;;12.00;8.52;;;24.60;55.80;;;;;;5084991;28;20407;-77
2021/06/16 07:27:41;;;;;;;13.98;9.77;;;24.90;55.90;;;;;;5086155;28;20407;-78
2021/06/16 07:30:07;;;;;;;16.75;9.25;;;25.00;55.70;;;;;;5109838;28;20035;-78
2021/06/16 07:32:35;;;;;;;12.05;9.07;;;25.20;55.40;;;;;;5090412;28;20104;-79
2021/06/16 07:35:01;;;;;;;12.32;8.80;;;25.40;55.00;;;;;;5108840;28;20391;-78
2021/06/16 07:37:27;;;;;;;9.88;8.68;;;25.60;54.70;;;;;;5091132;28;20071;-78
2021/06/16 07:39:54;;;;;;;14.80;9.10;;;25.90;54.50;;;;;;5108781;28;20032;-80
2021/06/16 07:42:21;;;;;;;11.18;9.95;;;26.10;54.10;;;;;;5108804;28;20058;-79
2021/06/16 07:44:48;;;;;;;12.68;8.85;;;26.30;53.70;;;;;;5108214;28;20470;-83
2021/06/16 07:47:14;;;;;;;11.40;8.50;;;26.50;53.30;;;;;;5089311;28;20035;-80
2021/06/16 07:49:40;;;;;;;13.95;9.00;;;26.80;53.60;;;;;;5090487;28;20133;-80
2021/06/16 07:52:07;;;;;;;14.73;8.73;;;27.00;52.50;;;;;;5083772;28;20047;-80
2021/06/16 07:54:34;;;;;;;15.32;9.02;;;27.20;51.90;;;;;;5057358;28;20028;-80
2021/06/16 07:57:00;;;;;;;11.50;7.95;;;27.50;51.40;;;;;;5089404;28;20040;-80
2021/06/16 07:59:26;;;;;;;14.00;7.88;;;27.80;51.10;;;;;;5073106;28;20035;-80
2021/06/16 08:01:52;;;;;;;16.77;8.80;;;28.00;50.40;;;;;;5053313;28;20032;-80
2021/06/16 08:04:22;;;;;;;15.27;7.78;;;28.30;49.80;;;;;;5063154;28;20035;-80
2021/06/16 08:06:49;;;;;;;17.70;9.45;;;28.50;49.20;;;;;;5088293;27;20019;-80
2021/06/16 08:09:16;;;;;;;12.98;8.25;;;28.80;48.80;;;;;;5076181;28;20036;-80
2021/06/16 08:11:42;;;;;;;11.52;6.68;;;29.10;48.20;;;;;;5071387;27;20473;-80
2021/06/16 08:14:08;;;;;;;10.35;7.22;;;29.40;47.60;;;;;;5068785;28;20135;-80
2021/06/16 08:16:34;;;;;;;13.52;7.63;;;29.70;46.90;;;;;;5065964;28;20190;-80
2021/06/16 08:19:00;;;;;;;11.38;7.18;;;30.00;46.30;;;;;;5069312;28;20024;-80
2021/06/16 08:21:26;;;;;;;19.38;8.50;;;30.30;45.80;;;;;;5069273;28;20032;-80
2021/06/16 08:23:54;;;;;;;11.23;7.78;;;30.60;45.40;;;;;;5074215;28;20058;-79
2021/06/16 08:26:20;;;;;;;13.23;7.93;;;30.90;44.60;;;;;;5079271;28;20456;-81
2021/06/16 08:28:46;;;;;;;14.05;7.93;;;31.10;44.00;;;;;;5098595;28;20019;-80
2021/06/16 08:31:12;;;;;;;16.88;8.00;;;31.40;43.50;;;;;;5107076;28;20077;-80
2021/06/16 08:33:39;;;;;;;11.10;7.13;;;31.70;43.00;;;;;;5107445;28;20023;-80
2021/06/16 08:36:07;;;;;;;14.32;7.95;;;31.90;42.60;;;;;;5107221;28;20255;-80
2021/06/16 08:38:33;;;;;;;14.27;8.13;;;32.10;42.10;;;;;;5097780;28;20024;-80
2021/06/16 08:41:05;;;;;;;9.68;6.32;;;32.20;41.80;;;;;;5089110;28;20024;-80
2021/06/16 08:43:45;;;;;;;13.18;7.88;;;32.40;41.40;;;;;;5095172;28;20124;-80
2021/06/16 08:46:13;;;;;;;11.82;7.05;;;32.50;41.00;;;;;;5087306;28;20031;-80
2021/06/16 08:48:41;;;;;;;11.25;7.45;;;32.60;40.70;;;;;;5087262;28;20027;-80
2021/06/16 08:51:08;;;;;;;9.70;6.90;;;32.60;40.60;;;;;;5086626;28;20487;-79
2021/06/16 08:53:35;;;;;;;14.15;7.53;;;32.60;40.40;;;;;;5077004;28;20118;-79
2021/06/16 08:56:02;;;;;;;11.80;5.97;;;32.50;40.20;;;;;;5088367;28;20054;-80
2021/06/16 08:58:28;;;;;;;8.88;6.38;;;32.50;40.30;;;;;;5089073;28;20024;-80
2021/06/16 09:00:55;;;;;;;10.10;6.43;;;32.40;40.20;;;;;;5107088;28;20067;-80
2021/06/16 09:03:21;;;;;;;11.27;6.63;;;32.20;40.10;;;;;;5107261;28;20041;-80
2021/06/16 09:05:49;;;;;;;9.20;6.25;;;32.00;40.30;;;;;;5107406;28;20542;-80
2021/06/16 09:08:22;;;;;;;9.80;5.40;;;31.50;40.70;;;;;;5107264;28;20142;-80
2021/06/16 09:10:53;;;;;;;9.18;6.22;;;31.00;41.40;;;;;;5106954;28;20283;-79
2021/06/16 09:13:36;;;;;;;9.57;6.55;;;30.60;42.00;;;;;;5106095;28;20058;-78
2021/06/16 09:16:26;;;;;;;8.33;5.90;;;30.20;42.50;;;;;;5106977;28;20039;-85
2021/06/16 09:18:53;;;;;;;7.57;4.78;;;29.90;42.90;;;;;;5090724;28;20055;-79
2021/06/16 09:21:40;;;;;;;10.32;5.40;;;29.80;43.20;;;;;;5072448;28;20024;-80
2021/06/16 09:24:07;;;;;;;8.88;5.05;;;29.80;43.10;;;;;;5103408;28;20479;-79
2021/06/16 09:26:38;;;;;;;10.80;5.63;;;29.80;42.90;;;;;;5110838;28;20498;-79
2021/06/16 09:29:05;;;;;;;9.25;5.75;;;29.70;42.50;;;;;;5110652;28;20030;-79
2021/06/16 09:31:37;;;;;;;7.18;4.03;;;29.60;42.60;;;;;;5092613;28;20042;-78
2021/06/16 09:34:12;;;;;;;8.80;4.43;;;29.60;42.30;;;;;;5102522;28;20076;-78
2021/06/16 09:36:47;;;;;;;9.10;4.68;;;29.50;42.00;;;;;;5110230;28;20032;-78
2021/06/16 09:39:13;;;;;;;8.55;4.88;;;29.40;42.20;;;;;;5070478;28;20032;-78
2021/06/16 09:42:02;;;;;;;7.40;4.82;;;29.30;42.60;;;;;;5080687;28;20496;-78
2021/06/16 09:44:42;;;;;;;10.15;4.63;;;29.10;42.80;;;;;;5090889;28;20133;-78
2021/06/16 09:47:20;;;;;;;7.30;4.32;;;28.80;43.10;;;;;;5054791;28;20081;-78
2021/06/16 09:49:47;;;;;;;7.57;4.15;;;28.80;43.40;;;;;;5089702;28;20479;-77
2021/06/16 09:52:32;;;;;;;6.50;3.35;;;28.70;43.40;;;;;;5054909;28;20059;-77
2021/06/16 09:55:03;;;;;;;6.78;3.88;;;28.60;43.10;;;;;;5074132;28;20067;-79
2021/06/16 09:57:29;;;;;;;10.70;3.67;;;28.50;43.20;;;;;;5074918;28;20475;-78
2021/06/16 10:00:02;;;;;;;8.82;3.53;;;28.50;43.10;;;;;;5075219;28;20062;-77
2021/06/16 10:02:40;;;;;;;5.50;3.00;;;28.40;43.00;;;;;;5092048;28;20081;-77
2021/06/16 10:05:07;;;;;;;8.45;3.88;;;28.40;43.20;;;;;;5092498;28;20105;-78
2021/06/16 10:07:35;;;;;;;7.00;3.17;;;28.40;43.70;;;;;;5074449;28;20035;-78
2021/06/16 10:10:07;;;;;;;5.25;2.95;;;28.40;43.10;;;;;;5071331;28;20036;-78
2021/06/16 10:12:37;;;;;;;5.60;3.17;;;28.40;43.10;;;;;;5071091;28;20034;-76
2021/06/16 10:15:21;;;;;;;6.72;2.80;;;28.40;43.30;;;;;;5071661;28;20044;-77
2021/06/16 10:17:49;;;;;;;7.00;3.17;;;28.40;43.20;;;;;;5088638;28;20529;-77
2021/06/16 10:20:17;;;;;;;11.27;3.65;;;28.50;43.40;;;;;;5071548;28;20135;-77
2021/06/16 10:22:43;;;;;;;11.98;4.45;;;28.50;43.50;;;;;;5073619;28;20039;-79
2021/06/16 10:25:11;;;;;;;6.60;3.10;;;28.50;43.50;;;;;;5091868;28;20058;-81
2021/06/16 10:27:53;;;;;;;146.00;14.93;;;28.50;43.70;;;;;;5091521;28;20047;-80
2021/06/16 10:31:09;;;;;;;10.63;3.65;;;28.50;44.00;;;;;;5090785;28;20027;-86
2021/06/16 10:40:25;;;;;;;6.78;2.55;;;28.70;43.20;;;;;;5119766;27;20374;-73
2021/06/16 10:43:03;;;;;;;7.55;2.17;;;28.70;43.20;;;;;;5100740;28;20035;-73
2021/06/16 10:45:32;;;;;;;4.90;2.05;;;28.80;42.70;;;;;;5099454;28;20024;-74
2021/06/16 10:48:06;;;;;;;7.13;4.10;;;28.80;43.20;;;;;;5100688;28;20613;-74
2021/06/16 10:50:52;;;;;;;7.53;2.53;;;28.80;42.40;;;;;;5102313;28;20036;-73
2021/06/16 10:53:19;;;;;;;9.85;2.47;;;28.90;42.10;;;;;;5081518;28;20490;-72
2021/06/16 10:55:52;;;;;;;5.57;2.30;;;28.90;41.80;;;;;;5077777;28;20036;-73
2021/06/16 10:58:20;;;;;;;4.57;2.13;;;28.90;41.40;;;;;;5089176;28;20039;-72
2021/06/16 11:01:20;;;;;;;7.10;2.28;;;28.90;41.50;;;;;;5096680;28;20024;-72
2021/06/16 11:03:46;;;;;;;4.18;2.42;;;29.00;41.40;;;;;;5094200;28;20514;-72
2021/06/16 11:06:37;;;;;;;5.15;2.35;;;29.00;41.30;;;;;;5102154;28;20028;-72
2021/06/16 11:09:14;;;;;;;3.65;1.95;;;29.10;41.10;;;;;;5074767;28;20039;-72
2021/06/16 11:12:06;;;;;;;5.93;1.95;;;29.10;40.80;;;;;;5080883;28;20028;-71
2021/06/16 11:14:35;;;;;;;7.32;2.13;;;29.10;41.00;;;;;;5090752;28;20118;-71
2021/06/16 11:17:05;;;;;;;5.32;2.33;;;29.10;40.80;;;;;;5093018;28;20028;-72
2021/06/16 11:19:34;;;;;;;5.68;2.28;;;29.30;40.70;;;;;;5106482;28;20046;-73
2021/06/16 11:22:05;;;;;;;6.65;3.00;;;29.30;40.30;;;;;;5106604;28;20032;-72
2021/06/16 11:25:08;;;;;;;4.93;1.80;;;29.30;40.20;;;;;;5101671;28;20024;-72
2021/06/16 11:27:53;;;;;;;5.75;2.08;;;29.30;40.00;;;;;;5093389;28;20123;-71
2021/06/16 11:30:54;;;;;;;27.70;3.15;;;29.40;40.30;;;;;;5096948;28;20348;-73
2021/06/16 11:33:22;;;;;;;26.42;4.43;;;29.40;40.00;;;;;;5093861;28;20035;-73
2021/06/16 11:35:52;;;;;;;4.22;2.03;;;29.40;40.10;;;;;;5082567;28;20078;-73
2021/06/16 11:38:20;;;;;;;8.25;2.80;;;29.50;39.70;;;;;;5084869;28;20469;-72
2021/06/16 11:40:53;;;;;;;11.82;2.50;;;29.50;39.50;;;;;;5089040;28;20024;-72
2021/06/16 11:43:37;;;;;;;6.37;1.93;;;29.60;39.10;;;;;;5101862;28;20028;-73
2021/06/16 11:46:30;;;;;;;4.00;1.88;;;29.60;39.00;;;;;;5106924;28;20506;-72
2021/06/16 11:49:28;;;;;;;5.72;2.20;;;29.60;38.90;;;;;;5096882;28;20032;-72
2021/06/16 11:52:02;;;;;;;5.68;2.08;;;29.60;38.70;;;;;;5069149;28;20040;-72
2021/06/16 11:54:38;;;;;;;6.03;2.03;;;29.60;38.60;;;;;;5072516;28;20066;-71
2021/06/16 11:57:09;;;;;;;3.75;1.55;;;29.60;38.70;;;;;;5069831;28;20038;-72
2021/06/16 11:59:42;;;;;;;5.72;1.70;;;29.60;38.70;;;;;;5089244;28;20051;-72
2021/06/16 12:02:16;;;;;;;;;;;29.70;38.60;;;;;;5091748;28;20020;-72
2021/06/16 12:05:06;;;;;;;10.00;2.20;;;29.70;39.00;;;;;;5090695;28;20103;-72
2021/06/16 12:07:45;;;;;;;6.72;2.30;;;29.80;39.10;;;;;;5071236;28;20028;-71
2021/06/16 12:10:20;;;;;;;8.18;2.45;;;29.80;39.00;;;;;;5088160;28;20020;-71
2021/06/16 12:12:49;;;;;;;7.32;2.10;;;29.90;39.20;;;;;;5086558;28;20037;-71
2021/06/16 12:15:19;;;;;;;6.07;2.10;;;30.00;39.40;;;;;;5087571;28;20024;-71
2021/06/16 12:18:08;;;;;;;4.82;2.47;;;30.20;39.60;;;;;;5082972;28;20282;-71
2021/06/16 12:20:40;;;;;;;5.15;2.25;;;30.40;39.60;;;;;;5085211;28;20070;-73
2021/06/16 12:23:38;;;;;;;7.72;2.00;;;30.60;39.70;;;;;;5086011;28;20032;-71
2021/06/16 12:26:08;;;;;;;10.20;3.17;;;30.80;39.40;;;;;;5086562;28;20028;-70
2021/06/16 12:28:38;;;;;;;9.18;2.80;;;30.90;39.10;;;;;;5086047;28;20391;-72
2021/06/16 12:31:09;;;;;;;15.73;3.20;;;30.90;39.10;;;;;;5084912;28;20073;-73
2021/06/16 12:36:28;;;;;;;14.32;3.08;;;30.90;39.10;;;;;;5084378;28;20024;-72
2021/06/16 12:39:13;;;;;;;6.25;2.55;;;30.80;39.30;;;;;;5070863;28;20524;-71
2021/06/16 12:41:46;;;;;;;4.22;2.40;;;30.80;39.20;;;;;;5065055;28;20036;-71
2021/06/16 12:44:21;;;;;;;5.38;2.30;;;30.90;39.10;;;;;;5080887;28;20699;-71
2021/06/16 12:47:03;;;;;;;7.28;2.50;;;30.90;39.10;;;;;;5084074;28;20028;-72
2021/06/16 12:49:31;;;;;;;7.13;2.47;;;30.90;39.00;;;;;;5074647;28;20053;-71
2021/06/16 12:52:00;;;;;;;3.63;2.00;;;31.00;39.10;;;;;;5074409;28;20501;-71
2021/06/16 12:54:34;;;;;;;8.88;2.78;;;31.00;39.10;;;;;;5085781;28;20043;-71
2021/06/16 12:57:17;;;;;;;6.03;2.45;;;31.00;39.00;;;;;;5048235;28;20052;-71
2021/06/16 12:59:50;;;;;;;4.88;2.83;;;31.10;38.90;;;;;;5084491;28;20459;-71
2021/06/16 13:02:29;;;;;;;;;;;31.10;39.10;;;;;;5081096;28;20032;-72
2021/06/16 13:05:00;;;;;;;5.00;2.33;;;31.20;39.40;;;;;;5086826;28;19908;-71
2021/06/16 13:07:44;;;;;;;23.52;3.22;;;31.30;39.30;;;;;;5086444;28;20028;-70
2021/06/16 13:10:14;;;;;;;9.90;3.10;;;31.40;39.30;;;;;;5086573;28;20028;-71